Time;durP1;ratioP1;P1;durP2;ratioP2;P2;SDS_P1;SDS_P2;PMS_P1;PMS_P2;Temp;Humidity;BMP_temperature;BMP_pressure;BME280_temperature;BME280_humidity;BME280_pressure;Samples;Min_cycle;Max_cycle;Signal;HPM_P1;HPM_P2
2022/04/20 00:01:11;;;;;;;2.57;2.10;;;12.50;62.90;;;;;;5045905;28;20232;-68
2022/04/20 00:03:38;;;;;;;2.00;1.70;;;12.40;62.70;;;;;;5042712;28;20282;-68
2022/04/20 00:06:07;;;;;;;3.77;1.50;;;12.40;62.70;;;;;;5021082;28;20243;-68
2022/04/20 00:08:33;;;;;;;3.83;2.53;;;12.40;62.90;;;;;;5029305;28;20463;-68
2022/04/20 00:11:00;;;;;;;1.80;1.70;;;12.30;62.80;;;;;;5030128;28;20887;-69
2022/04/20 00:13:25;;;;;;;1.73;1.63;;;12.30;63.00;;;;;;5020112;28;20458;-68
2022/04/20 00:15:51;;;;;;;2.33;2.13;;;12.30;63.20;;;;;;5013736;28;20467;-67
2022/04/20 00:18:17;;;;;;;3.40;1.90;;;12.30;63.50;;;;;;5012460;28;20228;-68
2022/04/20 00:20:43;;;;;;;1.80;1.70;;;12.10;63.70;;;;;;5029027;28;20270;-69
2022/04/20 00:23:08;;;;;;;4.87;1.57;;;12.10;63.50;;;;;;5041503;28;20223;-68
2022/04/20 00:25:34;;;;;;;2.30;1.60;;;12.10;63.70;;;;;;5020831;28;20230;-70
2022/04/20 00:28:00;;;;;;;1.80;1.70;;;12.10;63.50;;;;;;5029586;28;20779;-68
2022/04/20 00:30:26;;;;;;;1.60;1.50;;;12.00;63.70;;;;;;5029095;28;20216;-68
2022/04/20 00:32:52;;;;;;;4.30;1.70;;;12.00;63.70;;;;;;5019604;28;20225;-68
2022/04/20 00:35:17;;;;;;;3.17;1.50;;;11.90;63.50;;;;;;5010527;28;20217;-69
2022/04/20 00:37:44;;;;;;;1.83;1.70;;;11.90;63.70;;;;;;5022640;28;20535;-69
2022/04/20 00:40:11;;;;;;;3.80;2.27;;;11.90;63.60;;;;;;5031074;28;20219;-68
2022/04/20 00:42:40;;;;;;;1.70;1.50;;;11.80;63.50;;;;;;5027688;28;20538;-69
2022/04/20 00:45:10;;;;;;;1.80;1.70;;;11.80;63.80;;;;;;5025172;28;20880;-68
2022/04/20 00:47:37;;;;;;;3.40;1.67;;;11.70;64.50;;;;;;5005277;28;20459;-68
2022/04/20 00:50:05;;;;;;;4.73;2.20;;;11.70;64.20;;;;;;5017636;28;20470;-69
2022/04/20 00:52:31;;;;;;;2.17;2.07;;;11.60;64.00;;;;;;5031325;28;20529;-69
2022/04/20 00:54:56;;;;;;;2.93;2.60;;;11.60;64.40;;;;;;5005695;28;20549;-69
2022/04/20 00:57:22;;;;;;;2.50;2.20;;;11.60;64.40;;;;;;4998497;28;20468;-68
2022/04/20 00:59:51;;;;;;;2.27;1.83;;;11.50;64.90;;;;;;5008536;28;20233;-68
2022/04/20 01:02:17;;;;;;;2.10;1.90;;;11.50;64.70;;;;;;5006154;28;20688;-68
2022/04/20 01:04:45;;;;;;;2.43;2.23;;;11.50;64.30;;;;;;4999163;28;20455;-68
2022/04/20 01:07:35;;;;;;;1.90;1.80;;;11.50;64.20;;;;;;5027507;28;20472;-70
2022/04/20 01:10:16;;;;;;;2.53;2.07;;;11.50;64.40;;;;;;5014842;28;21012;-68
2022/04/20 01:13:00;;;;;;;2.83;2.20;;;11.50;64.40;;;;;;5017857;28;20831;-70
2022/04/20 01:15:55;;;;;;;2.87;2.27;;;11.40;64.60;;;;;;4975349;28;20983;-70
2022/04/20 01:18:33;;;;;;;2.60;2.40;;;11.40;64.80;;;;;;5007897;28;20494;-69
2022/04/20 01:21:05;;;;;;;2.60;2.20;;;11.20;64.80;;;;;;5044480;28;20512;-68
2022/04/20 01:23:46;;;;;;;2.13;1.93;;;11.20;64.60;;;;;;5010463;28;20488;-68
2022/04/20 01:26:35;;;;;;;2.40;1.90;;;11.20;64.50;;;;;;5011397;28;20467;-68
2022/04/20 01:29:21;;;;;;;4.53;2.20;;;11.20;64.50;;;;;;5029702;28;20506;-69
2022/04/20 01:32:03;;;;;;;2.83;2.57;;;11.10;64.70;;;;;;5023219;28;20509;-68
2022/04/20 01:34:58;;;;;;;3.07;2.20;;;11.00;64.80;;;;;;5028740;28;20461;-69
2022/04/20 01:37:24;;;;;;;2.30;2.10;;;11.00;64.70;;;;;;5049344;28;20994;-72
2022/04/20 01:39:50;;;;;;;2.50;2.30;;;11.00;65.00;;;;;;5016484;28;20451;-69
2022/04/20 01:42:16;;;;;;;2.57;2.10;;;11.00;65.00;;;;;;5035505;28;20461;-68
2022/04/20 01:44:46;;;;;;;2.53;2.33;;;10.90;65.10;;;;;;5024838;28;20754;-69
2022/04/20 01:47:22;;;;;;;2.90;2.03;;;10.90;65.00;;;;;;5014730;28;20475;-69
2022/04/20 01:49:57;;;;;;;3.60;2.87;;;10.80;65.30;;;;;;5033890;28;20537;-70
2022/04/20 01:52:41;;;;;;;4.60;2.70;;;10.70;65.20;;;;;;5030868;28;20461;-69
2022/04/20 01:55:27;;;;;;;3.30;2.30;;;10.70;65.10;;;;;;4998242;28;20968;-68
2022/04/20 01:58:12;;;;;;;2.60;2.33;;;10.70;65.00;;;;;;5012670;28;20467;-69
2022/04/20 02:00:51;;;;;;;2.30;2.10;;;10.70;65.00;;;;;;5003579;28;20451;-68
2022/04/20 02:03:28;;;;;;;2.70;2.50;;;10.70;65.40;;;;;;5022700;28;20455;-72
2022/04/20 02:06:03;;;;;;;2.50;2.23;;;10.70;65.00;;;;;;5018839;28;20590;-69
2022/04/20 02:08:43;;;;;;;3.10;2.30;;;10.60;65.00;;;;;;5011202;28;20460;-70
2022/04/20 02:11:27;;;;;;;2.80;2.47;;;10.60;64.90;;;;;;5043369;28;20485;-69
2022/04/20 02:14:05;;;;;;;2.37;2.17;;;10.60;65.00;;;;;;5014851;28;20471;-69
2022/04/20 02:16:33;;;;;;;3.10;1.97;;;10.60;65.10;;;;;;5014235;28;20466;-68
2022/04/20 02:19:17;;;;;;;3.20;1.97;;;10.50;65.10;;;;;;5038135;28;20536;-69
2022/04/20 02:22:06;;;;;;;2.70;2.50;;;10.50;65.40;;;;;;5027082;28;20469;-68
2022/04/20 02:24:33;;;;;;;2.20;2.00;;;10.20;66.30;;;;;;5026891;28;20962;-68
2022/04/20 02:26:59;;;;;;;3.50;2.70;;;10.30;65.50;;;;;;5032163;28;20471;-69
2022/04/20 02:29:25;;;;;;;2.10;1.90;;;10.30;65.40;;;;;;5029173;28;20220;-69
2022/04/20 02:31:50;;;;;;;4.80;2.17;;;10.30;65.70;;;;;;5046209;28;20474;-70
2022/04/20 02:34:16;;;;;;;2.40;2.20;;;10.30;65.60;;;;;;5010312;28;20302;-69
2022/04/20 02:36:43;;;;;;;3.13;2.93;;;10.30;65.40;;;;;;5014934;28;20231;-68
2022/04/20 02:39:09;;;;;;;3.70;2.60;;;10.20;65.30;;;;;;5034021;28;20455;-68
2022/04/20 02:41:36;;;;;;;2.17;2.07;;;10.20;65.50;;;;;;5027685;28;20229;-70
2022/04/20 02:44:04;;;;;;;2.37;2.13;;;10.10;65.70;;;;;;5048194;28;20299;-69
2022/04/20 02:46:30;;;;;;;2.30;2.10;;;10.10;65.70;;;;;;5029481;28;20481;-68
2022/04/20 02:48:55;;;;;;;4.23;2.80;;;10.10;65.70;;;;;;5001621;28;20456;-68
2022/04/20 02:51:21;;;;;;;2.70;2.23;;;10.00;65.30;;;;;;4999957;28;20236;-70
2022/04/20 02:53:47;;;;;;;2.90;2.30;;;10.00;65.50;;;;;;5018934;28;20224;-68
2022/04/20 02:56:13;;;;;;;3.03;2.50;;;10.00;66.00;;;;;;5015980;28;20263;-69
2022/04/20 02:58:40;;;;;;;3.00;2.20;;;9.90;67.70;;;;;;4997423;28;20464;-68
2022/04/20 03:01:06;;;;;;;2.70;2.50;;;9.80;67.90;;;;;;4997520;28;20471;-68
2022/04/20 03:03:38;;;;;;;6.73;2.13;;;9.80;67.90;;;;;;5016884;28;20232;-68
2022/04/20 03:06:27;;;;;;;2.10;1.80;;;9.80;67.90;;;;;;5033916;28;20990;-71
2022/04/20 03:08:53;;;;;;;3.20;2.20;;;9.80;67.70;;;;;;5010360;28;20456;-68
2022/04/20 03:11:23;;;;;;;3.80;2.60;;;9.80;67.60;;;;;;5018099;28;21025;-68
2022/04/20 03:13:49;;;;;;;2.93;2.50;;;9.60;68.00;;;;;;5033457;28;20446;-67
2022/04/20 03:16:16;;;;;;;2.63;2.43;;;9.60;68.20;;;;;;5049838;28;20447;-69
2022/04/20 03:18:42;;;;;;;2.60;2.30;;;9.60;68.30;;;;;;5017407;28;20526;-69
2022/04/20 03:21:16;;;;;;;3.07;2.47;;;9.40;68.60;;;;;;5014000;28;20233;-69
2022/04/20 03:23:42;;;;;;;4.90;3.17;;;9.40;68.90;;;;;;5030529;28;20460;-68
2022/04/20 03:26:11;;;;;;;3.80;2.70;;;9.40;69.30;;;;;;4997792;28;20478;-67
2022/04/20 03:28:51;;;;;;;2.80;2.07;;;9.40;68.70;;;;;;5012672;28;20497;-69
2022/04/20 03:31:17;;;;;;;2.83;2.60;;;9.40;68.50;;;;;;5009071;28;20466;-68
2022/04/20 03:33:43;;;;;;;3.60;2.67;;;9.50;68.40;;;;;;5019492;28;20270;-66
2022/04/20 03:36:08;;;;;;;2.50;2.30;;;9.30;68.60;;;;;;5021634;28;20455;-71
2022/04/20 03:38:35;;;;;;;3.50;2.70;;;9.30;68.60;;;;;;5016195;28;20228;-67
2022/04/20 03:41:03;;;;;;;2.80;2.60;;;9.30;68.70;;;;;;5037878;28;20308;-68
2022/04/20 03:43:29;;;;;;;3.50;2.70;;;9.20;68.90;;;;;;5030807;28;20451;-68
2022/04/20 03:45:55;;;;;;;2.60;2.40;;;9.10;68.90;;;;;;5025178;28;20494;-73
2022/04/20 03:48:20;;;;;;;3.13;2.60;;;9.10;69.30;;;;;;5024010;28;20228;-70
2022/04/20 03:50:46;;;;;;;3.33;2.70;;;9.10;69.30;;;;;;5025312;28;20267;-71
2022/04/20 03:53:12;;;;;;;2.30;2.10;;;9.20;69.40;;;;;;5032675;28;20223;-72
2022/04/20 03:55:37;;;;;;;4.03;2.80;;;9.00;69.30;;;;;;5032581;28;20642;-70
2022/04/20 03:58:03;;;;;;;2.60;2.40;;;9.10;69.40;;;;;;5023326;28;20704;-74
2022/04/20 04:00:31;;;;;;;3.77;2.83;;;9.10;69.40;;;;;;5014617;28;20219;-71
2022/04/20 04:02:57;;;;;;;3.43;2.40;;;9.10;69.40;;;;;;5015602;28;20212;-70
2022/04/20 04:05:34;;;;;;;2.60;2.40;;;9.00;69.50;;;;;;5024988;28;20482;-71
2022/04/20 04:08:06;;;;;;;2.90;2.53;;;9.00;69.50;;;;;;5031890;28;20446;-68
2022/04/20 04:10:34;;;;;;;3.37;2.93;;;9.00;69.20;;;;;;5015964;28;20450;-70
2022/04/20 04:13:00;;;;;;;2.50;2.30;;;9.00;69.10;;;;;;5012844;28;20451;-68
2022/04/20 04:15:27;;;;;;;2.87;2.57;;;9.00;69.40;;;;;;5012275;28;20447;-69
2022/04/20 04:17:58;;;;;;;5.90;2.90;;;8.90;69.60;;;;;;4995966;28;20452;-69
2022/04/20 04:20:26;;;;;;;2.57;2.37;;;8.90;69.80;;;;;;5012864;28;21061;-68
2022/04/20 04:22:53;;;;;;;3.13;2.73;;;8.80;69.60;;;;;;5011040;28;20500;-69
2022/04/20 04:25:45;;;;;;;3.20;2.13;;;8.80;69.70;;;;;;5030509;28;20494;-67
2022/04/20 04:28:18;;;;;;;3.90;2.43;;;8.80;69.70;;;;;;5018796;28;20512;-68
2022/04/20 04:30:45;;;;;;;2.70;2.23;;;8.80;69.80;;;;;;5008777;28;20444;-72
2022/04/20 04:33:10;;;;;;;2.47;2.20;;;8.90;69.80;;;;;;5012539;28;20451;-70
2022/04/20 04:35:37;;;;;;;2.50;2.30;;;8.80;69.60;;;;;;5011260;28;20601;-69
2022/04/20 04:38:06;;;;;;;3.27;2.17;;;8.80;69.80;;;;;;5007476;28;20488;-68
2022/04/20 04:40:33;;;;;;;3.47;2.30;;;8.80;69.60;;;;;;4995626;28;20451;-69
2022/04/20 04:43:01;;;;;;;3.10;2.80;;;8.80;69.80;;;;;;5032425;28;20461;-67
2022/04/20 04:48:36;;;;;;;2.83;2.60;;;8.80;69.90;;;;;;5031534;28;20447;-68
2022/04/20 04:51:03;;;;;;;2.40;2.20;;;8.80;70.00;;;;;;5014906;28;20451;-68
2022/04/20 04:53:31;;;;;;;6.10;2.47;;;8.70;69.90;;;;;;5012025;28;20816;-68
2022/04/20 04:55:57;;;;;;;3.30;2.63;;;8.70;70.00;;;;;;5007174;28;20487;-69
2022/04/20 04:58:23;;;;;;;3.77;2.30;;;8.70;70.10;;;;;;4994177;28;20483;-68
2022/04/20 05:00:50;;;;;;;7.03;2.80;;;8.70;70.40;;;;;;5011954;28;20266;-69
2022/04/20 05:03:23;;;;;;;5.90;5.30;;;8.70;70.20;;;;;;4993860;28;20447;-68
2022/04/20 05:05:49;;;;;;;6.63;5.83;;;8.70;70.40;;;;;;5010052;28;20522;-69
2022/04/20 05:08:26;;;;;;;4.60;4.20;;;8.70;70.40;;;;;;5030549;28;20482;-67
2022/04/20 05:10:52;;;;;;;12.73;4.07;;;8.70;70.50;;;;;;5011715;28;20538;-68
2022/04/20 05:13:19;;;;;;;8.37;3.50;;;8.70;70.40;;;;;;5016885;28;20542;-67
2022/04/20 05:15:44;;;;;;;3.93;3.23;;;8.70;70.70;;;;;;4999710;28;20208;-68
2022/04/20 05:18:10;;;;;;;4.13;3.00;;;8.60;71.00;;;;;;5016077;28;20456;-73
2022/04/20 05:20:36;;;;;;;4.37;2.77;;;8.60;71.20;;;;;;5014435;28;20711;-71
2022/04/20 05:23:05;;;;;;;6.70;2.90;;;8.60;71.10;;;;;;5015954;28;20462;-68
2022/04/20 05:25:31;;;;;;;4.73;3.57;;;8.60;71.60;;;;;;5020014;28;20451;-69
2022/04/20 05:27:57;;;;;;;2.90;2.60;;;8.60;71.40;;;;;;5019996;28;20506;-69
2022/04/20 05:30:26;;;;;;;3.07;2.70;;;8.60;71.40;;;;;;4993979;28;20223;-71
2022/04/20 05:32:52;;;;;;;3.13;2.80;;;8.60;71.50;;;;;;5012421;28;20451;-68
2022/04/20 05:35:21;;;;;;;5.33;3.17;;;8.60;71.40;;;;;;5010653;28;20208;-69
2022/04/20 05:43:33;;;;;;;6.97;2.50;;;8.60;71.80;;;;;;5037453;28;20458;-71
2022/04/20 05:45:59;;;;;;;8.70;2.87;;;8.70;71.80;;;;;;5021502;28;20458;-69
2022/04/20 05:48:41;;;;;;;3.67;2.53;;;8.70;72.80;;;;;;5038341;28;20463;-69
2022/04/20 05:51:13;;;;;;;3.97;2.80;;;8.70;72.20;;;;;;5023026;28;20454;-70
2022/04/20 05:53:39;;;;;;;3.10;2.60;;;8.70;72.40;;;;;;5019830;28;20485;-71
2022/04/20 05:56:06;;;;;;;4.10;2.60;;;8.80;73.10;;;;;;5022788;28;20450;-69
2022/04/20 05:58:33;;;;;;;3.10;2.63;;;8.80;73.60;;;;;;5009835;28;21025;-69
2022/04/20 06:00:59;;;;;;;3.30;3.00;;;8.80;73.70;;;;;;5012435;28;20460;-68
2022/04/20 06:03:52;;;;;;;4.17;2.53;;;8.90;74.40;;;;;;5017606;28;20220;-71
2022/04/20 06:06:38;;;;;;;3.10;2.80;;;8.90;74.20;;;;;;5037903;28;20991;-69
2022/04/20 06:09:21;;;;;;;3.80;2.80;;;8.90;74.40;;;;;;5024552;28;20446;-70
2022/04/20 06:11:59;;;;;;;7.47;3.87;;;9.00;75.60;;;;;;5021180;28;20951;-69
2022/04/20 06:14:38;;;;;;;4.03;2.97;;;9.10;76.80;;;;;;5024618;28;20451;-70
2022/04/20 06:17:10;;;;;;;3.50;2.73;;;9.10;77.10;;;;;;5022423;28;20455;-72
2022/04/20 06:19:39;;;;;;;2.87;2.50;;;9.10;76.90;;;;;;5022397;28;20443;-69
2022/04/20 06:22:25;;;;;;;4.00;2.83;;;9.20;77.20;;;;;;5021891;28;20483;-69
2022/04/20 06:25:02;;;;;;;3.80;2.70;;;9.20;77.40;;;;;;5019293;28;20893;-69
2022/04/20 06:27:50;;;;;;;2.97;2.67;;;9.30;77.00;;;;;;5003566;28;20457;-70
2022/04/20 06:30:40;;;;;;;3.10;2.77;;;9.30;77.40;;;;;;5021058;28;20446;-68
2022/04/20 06:33:13;;;;;;;3.53;2.37;;;9.30;76.90;;;;;;5016695;28;20451;-70
2022/04/20 06:36:02;;;;;;;4.57;2.57;;;9.40;77.20;;;;;;5006172;28;20466;-71
2022/04/20 06:38:47;;;;;;;4.23;3.07;;;9.40;76.70;;;;;;5017269;28;20458;-69
2022/04/20 06:41:30;;;;;;;3.13;2.83;;;9.50;76.60;;;;;;5033852;28;20517;-68
2022/04/20 06:44:28;;;;;;;2.60;2.40;;;9.50;77.00;;;;;;5012973;28;20505;-72
2022/04/20 06:47:12;;;;;;;4.47;2.93;;;9.60;77.80;;;;;;5036585;28;20553;-75
2022/04/20 06:49:56;;;;;;;5.40;2.97;;;9.70;78.20;;;;;;5039594;28;20510;-72
2022/04/20 06:58:32;;;;;;;3.00;2.50;;;9.80;77.50;;;;;;5028580;28;20537;-72
2022/04/20 07:00:59;;;;;;;4.03;2.73;;;9.80;77.40;;;;;;5016409;28;20465;-69
2022/04/20 07:04:01;;;;;;;6.00;2.60;;;9.90;77.90;;;;;;4956123;28;20907;-68
2022/04/20 07:06:34;;;;;;;3.67;2.87;;;10.00;75.80;;;;;;5011635;28;20827;-69
2022/04/20 07:09:13;;;;;;;3.67;3.27;;;10.00;76.20;;;;;;5020296;28;20475;-70
2022/04/20 07:11:50;;;;;;;3.03;2.60;;;10.10;75.40;;;;;;5014130;28;20475;-73
2022/04/20 07:14:16;;;;;;;11.03;2.73;;;10.10;75.60;;;;;;5012213;28;20451;-69
2022/04/20 07:16:42;;;;;;;3.00;2.40;;;10.20;76.50;;;;;;5031466;28;20742;-70
2022/04/20 07:19:15;;;;;;;3.90;2.90;;;10.20;75.20;;;;;;5014427;28;20225;-68
2022/04/20 07:21:55;;;;;;;3.43;3.00;;;10.30;76.00;;;;;;4998329;28;21014;-68
2022/04/20 07:24:21;;;;;;;2.93;2.53;;;10.40;75.40;;;;;;5033260;28;20463;-70
2022/04/20 07:27:06;;;;;;;2.87;2.63;;;10.40;75.70;;;;;;5026928;28;20351;-70
2022/04/20 07:29:51;;;;;;;2.97;2.20;;;10.50;75.00;;;;;;5029097;28;21020;-71
2022/04/20 07:32:48;;;;;;;3.27;2.30;;;10.50;75.10;;;;;;5005134;28;20455;-68
2022/04/20 07:35:37;;;;;;;2.60;2.40;;;10.60;75.60;;;;;;5039250;28;20462;-69
2022/04/20 07:38:20;;;;;;;3.57;3.27;;;10.70;75.00;;;;;;5019748;28;20459;-72
2022/04/20 07:41:25;;;;;;;3.40;2.40;;;10.70;75.00;;;;;;4927497;29;20470;-71
2022/04/20 07:44:14;;;;;;;3.93;2.93;;;10.90;75.20;;;;;;4927995;29;20487;-75
2022/04/20 07:46:52;;;;;;;2.40;2.20;;;11.00;75.50;;;;;;4989618;28;21047;-74
2022/04/20 07:52:19;;;;;;;2.87;2.67;;;11.10;74.30;;;;;;5014610;28;20546;-73
2022/04/20 07:55:13;;;;;;;2.77;2.50;;;11.20;73.40;;;;;;4997438;28;20459;-72
2022/04/20 07:57:49;;;;;;;2.40;2.20;;;11.30;73.60;;;;;;5036144;28;20474;-72
2022/04/20 08:00:33;;;;;;;3.03;2.70;;;11.30;73.20;;;;;;5033772;28;20457;-71
2022/04/20 08:03:18;;;;;;;2.70;2.50;;;11.40;73.10;;;;;;5031168;28;21003;-72
2022/04/20 08:06:03;;;;;;;4.03;3.53;;;11.50;73.10;;;;;;5014380;28;20486;-72
2022/04/20 08:08:32;;;;;;;2.90;2.70;;;11.60;72.90;;;;;;5033430;28;20454;-71
2022/04/20 08:10:59;;;;;;;5.90;2.47;;;11.50;73.00;;;;;;5018436;28;20439;-74
2022/04/20 08:16:20;;;;;;;3.63;2.60;;;11.60;73.40;;;;;;5032286;28;20447;-71
2022/04/20 08:19:07;;;;;;;3.93;2.70;;;11.80;74.20;;;;;;4976174;28;20533;-72
2022/04/20 08:21:51;;;;;;;2.43;2.23;;;11.70;72.90;;;;;;5037188;28;20524;-73
2022/04/20 08:24:17;;;;;;;2.80;2.60;;;11.80;73.20;;;;;;5034618;28;20446;-71
2022/04/20 08:26:42;;;;;;;2.97;2.60;;;12.00;73.50;;;;;;5018627;28;20227;-71
2022/04/20 08:29:10;;;;;;;3.47;3.17;;;12.00;72.80;;;;;;5034675;28;20220;-71
2022/04/20 08:31:37;;;;;;;8.40;3.13;;;12.00;72.30;;;;;;5035103;28;20282;-70
2022/04/20 08:34:03;;;;;;;2.90;2.50;;;12.00;71.20;;;;;;5016161;28;20962;-71
2022/04/20 08:36:28;;;;;;;3.30;2.50;;;12.00;71.40;;;;;;5032509;28;20510;-69
2022/04/20 08:38:54;;;;;;;5.07;3.10;;;12.00;71.60;;;;;;5035030;28;20458;-68
2022/04/20 08:41:19;;;;;;;3.37;3.07;;;12.00;71.00;;;;;;5034256;28;20720;-69
2022/04/20 08:43:45;;;;;;;3.10;2.90;;;12.00;69.90;;;;;;5033784;28;20242;-68
2022/04/20 08:46:11;;;;;;;3.70;3.00;;;12.00;69.80;;;;;;4995364;28;20239;-71
2022/04/20 08:48:38;;;;;;;6.10;3.23;;;12.10;70.30;;;;;;5023124;28;20685;-68
2022/04/20 08:51:05;;;;;;;3.07;2.87;;;12.20;70.30;;;;;;5005371;28;20471;-68
2022/04/20 08:53:31;;;;;;;3.00;2.70;;;12.30;70.20;;;;;;5036424;28;20530;-73
2022/04/20 08:58:47;;;;;;;2.80;2.50;;;12.50;70.80;;;;;;5038868;28;20258;-72
2022/04/20 09:01:14;;;;;;;3.17;2.90;;;12.80;70.40;;;;;;5016933;28;20467;-69
2022/04/20 09:03:42;;;;;;;3.70;2.80;;;12.80;69.60;;;;;;5017831;28;20482;-70
2022/04/20 09:06:09;;;;;;;2.60;2.40;;;12.80;69.10;;;;;;5016891;28;20479;-71
2022/04/20 09:08:37;;;;;;;2.83;2.63;;;13.00;69.30;;;;;;5028523;28;20490;-71
2022/04/20 09:11:05;;;;;;;3.73;3.00;;;13.10;68.50;;;;;;5036921;28;20530;-70
2022/04/20 09:13:33;;;;;;;4.00;3.30;;;13.10;68.10;;;;;;5018607;28;20466;-71
2022/04/20 09:16:12;;;;;;;3.10;2.83;;;13.00;67.50;;;;;;5019693;28;20459;-70
2022/04/20 09:18:43;;;;;;;4.47;3.40;;;12.90;65.80;;;;;;5030282;28;20583;-67
2022/04/20 09:21:11;;;;;;;4.10;3.33;;;13.00;66.50;;;;;;5036447;28;20482;-70
2022/04/20 09:23:38;;;;;;;4.00;3.33;;;13.10;65.30;;;;;;5000533;28;20457;-68
2022/04/20 09:26:08;;;;;;;3.37;2.23;;;13.20;65.00;;;;;;5015670;28;20466;-68
2022/04/20 09:28:36;;;;;;;3.27;2.60;;;13.20;64.40;;;;;;5018116;28;20475;-69
2022/04/20 09:31:02;;;;;;;2.93;2.60;;;13.20;64.50;;;;;;5037913;28;20463;-69
2022/04/20 09:33:50;;;;;;;2.77;2.57;;;13.10;64.10;;;;;;5016671;28;20513;-69
2022/04/20 09:36:45;;;;;;;3.20;2.83;;;13.20;64.00;;;;;;5015853;28;20443;-72
2022/04/20 09:39:13;;;;;;;3.80;2.43;;;13.20;64.80;;;;;;5032594;28;20509;-69
2022/04/20 09:41:56;;;;;;;3.30;2.60;;;13.40;64.50;;;;;;5011544;28;20934;-72
2022/04/20 09:44:22;;;;;;;2.97;2.70;;;13.60;64.60;;;;;;5032679;28;20246;-68
2022/04/20 09:50:01;;;;;;;3.40;3.10;;;14.00;64.40;;;;;;5031002;28;20514;-69
2022/04/20 09:52:44;;;;;;;3.20;2.90;;;13.80;62.90;;;;;;5013207;28;20456;-69
2022/04/20 09:55:31;;;;;;;3.70;2.57;;;13.70;61.50;;;;;;5016170;28;20478;-68
2022/04/20 09:58:19;;;;;;;2.90;2.63;;;13.60;61.30;;;;;;5037229;28;20503;-70
2022/04/20 10:00:52;;;;;;;3.50;3.20;;;13.60;61.70;;;;;;5021864;28;20502;-70
2022/04/20 10:03:31;;;;;;;2.80;2.53;;;13.60;61.00;;;;;;5034961;28;20474;-68
2022/04/20 10:05:59;;;;;;;1.90;1.80;;;13.70;60.30;;;;;;5035025;28;20557;-72
2022/04/20 10:08:25;;;;;;;3.43;2.50;;;13.80;60.60;;;;;;5027274;28;21038;-70
2022/04/20 10:10:55;;;;;;;3.90;3.07;;;13.90;60.00;;;;;;5029594;28;20538;-69
2022/04/20 10:13:22;;;;;;;3.03;2.27;;;14.00;60.30;;;;;;5016638;28;20474;-68
2022/04/20 10:16:05;;;;;;;8.03;3.13;;;13.90;59.50;;;;;;5015144;28;20956;-74
2022/04/20 10:18:33;;;;;;;4.57;2.90;;;14.00;59.10;;;;;;5039466;28;20453;-70
2022/04/20 10:21:00;;;;;;;2.33;2.13;;;14.00;59.00;;;;;;5035998;28;20932;-71
2022/04/20 10:23:30;;;;;;;2.90;2.47;;;14.00;58.80;;;;;;5037450;28;20486;-69
2022/04/20 10:26:00;;;;;;;3.63;2.60;;;14.20;58.80;;;;;;5039025;28;20549;-71
2022/04/20 10:28:46;;;;;;;3.30;3.00;;;14.30;58.90;;;;;;5033296;28;20595;-71
2022/04/20 10:31:22;;;;;;;2.77;2.43;;;14.40;58.50;;;;;;5021920;28;20486;-68
2022/04/20 10:33:55;;;;;;;2.90;2.00;;;14.30;58.30;;;;;;5031136;28;20501;-71
2022/04/20 10:36:34;;;;;;;3.17;2.33;;;14.40;58.10;;;;;;5018794;28;20964;-68
2022/04/20 10:39:22;;;;;;;3.17;2.60;;;14.40;57.90;;;;;;5016047;28;20452;-69
2022/04/20 10:42:12;;;;;;;3.50;2.50;;;14.60;58.20;;;;;;5021792;28;20980;-68
2022/04/20 10:44:51;;;;;;;2.40;2.20;;;14.50;58.30;;;;;;5035499;28;20461;-69
2022/04/20 10:47:24;;;;;;;2.63;2.43;;;14.80;58.20;;;;;;5032896;28;21043;-72
2022/04/20 10:49:51;;;;;;;2.77;2.57;;;15.10;57.70;;;;;;5021970;28;20458;-69
2022/04/20 10:52:23;;;;;;;2.83;2.33;;;15.00;57.70;;;;;;5040603;28;20465;-70
2022/04/20 10:54:51;;;;;;;4.03;2.80;;;14.90;57.70;;;;;;5001132;28;20451;-67
2022/04/20 10:57:17;;;;;;;2.43;2.20;;;14.80;58.00;;;;;;5012952;28;20522;-72
2022/04/20 10:59:43;;;;;;;3.37;2.03;;;15.00;57.80;;;;;;5028679;28;20487;-70
2022/04/20 11:02:11;;;;;;;5.33;2.67;;;15.20;57.90;;;;;;5013271;28;20567;-67
2022/04/20 11:04:39;;;;;;;2.90;2.60;;;15.20;57.60;;;;;;5033106;28;20298;-71
2022/04/20 11:07:07;;;;;;;2.47;2.27;;;15.10;57.50;;;;;;5034266;28;20475;-68
2022/04/20 11:09:42;;;;;;;2.23;2.03;;;15.20;57.70;;;;;;5036753;28;20461;-67
2022/04/20 11:21:10;;;;;;;2.30;2.13;;;15.60;57.10;;;;;;5022956;28;20465;-70
2022/04/20 11:24:11;;;;;;;2.13;2.00;;;15.50;57.00;;;;;;5033473;28;20459;-68
2022/04/20 11:26:51;;;;;;;1.90;1.80;;;15.30;57.50;;;;;;5005736;28;20486;-69
2022/04/20 11:29:22;;;;;;;2.93;2.70;;;15.50;57.00;;;;;;5032881;28;20545;-70
2022/04/20 11:31:54;;;;;;;3.00;2.40;;;15.70;57.20;;;;;;5040691;28;20516;-68
2022/04/20 11:34:21;;;;;;;3.00;2.70;;;15.70;57.60;;;;;;5024919;28;20493;-69
2022/04/20 11:36:48;;;;;;;2.60;2.40;;;15.70;57.40;;;;;;5041087;28;20478;-72
2022/04/20 11:39:16;;;;;;;2.57;2.37;;;15.60;57.30;;;;;;5018975;28;20497;-69
2022/04/20 11:41:49;;;;;;;2.60;2.40;;;15.40;57.10;;;;;;5035904;28;20490;-69
2022/04/20 11:44:26;;;;;;;2.93;2.47;;;15.40;57.40;;;;;;5002018;28;20459;-69
2022/04/20 11:46:57;;;;;;;4.03;3.30;;;15.30;57.70;;;;;;5017115;28;20471;-70
2022/04/20 11:49:36;;;;;;;3.10;2.87;;;15.40;57.70;;;;;;5017449;28;20534;-68
2022/04/20 11:52:06;;;;;;;3.00;2.77;;;15.40;58.10;;;;;;4999449;28;20472;-69
2022/04/20 11:54:33;;;;;;;2.60;2.37;;;15.30;58.30;;;;;;5009816;28;20460;-70
2022/04/20 11:57:07;;;;;;;2.97;2.40;;;15.40;57.90;;;;;;5021860;28;20490;-71
2022/04/20 11:59:34;;;;;;;3.07;2.80;;;15.60;57.80;;;;;;5041323;28;20458;-68
2022/04/20 12:01:59;;;;;;;3.27;2.50;;;15.60;57.40;;;;;;5003680;28;20471;-71
2022/04/20 12:04:27;;;;;;;3.90;2.73;;;15.80;57.70;;;;;;5010569;28;20464;-70
2022/04/20 12:07:01;;;;;;;2.90;2.53;;;15.70;57.10;;;;;;5017664;28;20250;-68
2022/04/20 12:09:32;;;;;;;3.20;2.87;;;15.60;57.00;;;;;;5034469;28;20600;-69
2022/04/20 12:12:00;;;;;;;2.57;2.03;;;15.70;56.80;;;;;;5003476;28;20447;-72
2022/04/20 12:14:34;;;;;;;2.10;2.00;;;15.70;56.40;;;;;;5023921;28;21074;-69
2022/04/20 12:17:05;;;;;;;2.60;2.40;;;15.70;56.80;;;;;;5016340;28;20538;-71
2022/04/20 12:19:35;;;;;;;2.63;2.43;;;15.70;57.00;;;;;;5007645;28;20450;-68
2022/04/20 12:22:12;;;;;;;3.90;2.70;;;15.60;57.10;;;;;;5015047;28;20450;-68
2022/04/20 12:24:38;;;;;;;2.33;2.13;;;15.70;57.50;;;;;;5011917;28;20987;-68
2022/04/20 12:27:19;;;;;;;3.47;3.17;;;15.70;57.80;;;;;;5000463;28;20506;-69
2022/04/20 12:29:52;;;;;;;2.20;2.00;;;15.70;57.30;;;;;;5032598;28;20522;-70
2022/04/20 12:32:26;;;;;;;3.90;2.43;;;15.70;57.30;;;;;;5037702;28;20512;-73
2022/04/20 12:34:55;;;;;;;4.03;3.07;;;15.60;57.10;;;;;;5016075;28;20454;-71
2022/04/20 12:37:29;;;;;;;2.83;2.60;;;15.70;57.00;;;;;;5021393;28;20456;-68
2022/04/20 12:39:55;;;;;;;3.23;2.70;;;15.70;56.80;;;;;;5034896;28;21007;-68
2022/04/20 12:42:21;;;;;;;2.97;2.60;;;15.80;57.10;;;;;;5037838;28;20479;-72
2022/04/20 12:45:02;;;;;;;3.00;2.67;;;15.90;57.00;;;;;;5001174;28;20447;-71
2022/04/20 12:47:29;;;;;;;2.60;2.37;;;15.90;56.70;;;;;;5037372;28;20555;-69
2022/04/20 12:50:16;;;;;;;2.80;2.60;;;15.90;56.90;;;;;;5036492;28;20454;-72
2022/04/20 12:52:52;;;;;;;3.87;2.77;;;16.00;57.00;;;;;;5014634;28;20460;-70
2022/04/20 12:55:18;;;;;;;3.00;2.70;;;16.00;56.40;;;;;;5010253;28;20479;-68
2022/04/20 13:03:34;;;;;;;4.30;3.10;;;16.40;56.50;;;;;;5037914;28;20459;-69
2022/04/20 13:06:00;;;;;;;4.70;3.07;;;16.20;56.40;;;;;;5035490;28;20489;-71
2022/04/20 13:08:26;;;;;;;4.93;2.80;;;16.30;56.90;;;;;;5034483;28;20459;-71
2022/04/20 13:10:52;;;;;;;3.40;2.80;;;16.30;56.80;;;;;;5039420;28;20439;-71
2022/04/20 13:13:23;;;;;;;2.77;2.53;;;16.20;56.60;;;;;;5023031;28;20459;-71
2022/04/20 13:15:49;;;;;;;3.60;3.13;;;16.20;56.90;;;;;;5039336;28;20455;-66
2022/04/20 13:18:15;;;;;;;3.00;2.23;;;16.30;56.50;;;;;;5032426;28;21057;-69
2022/04/20 13:20:40;;;;;;;5.63;2.33;;;16.30;56.60;;;;;;5041004;28;20217;-68
2022/04/20 13:23:06;;;;;;;8.50;3.23;;;16.30;56.10;;;;;;5043430;28;20219;-72
2022/04/20 13:28:17;;;;;;;4.93;3.10;;;16.20;56.20;;;;;;5040124;28;20759;-70
2022/04/20 13:30:44;;;;;;;4.00;2.70;;;16.30;56.10;;;;;;5036333;28;20459;-70
2022/04/20 13:33:11;;;;;;;3.00;2.50;;;16.40;56.40;;;;;;5038662;28;21010;-68
2022/04/20 13:35:37;;;;;;;4.83;2.43;;;16.40;56.00;;;;;;5039762;28;20453;-72
2022/04/20 13:38:06;;;;;;;8.53;3.20;;;16.40;56.60;;;;;;5043020;28;20561;-70
2022/04/20 13:40:33;;;;;;;2.90;2.63;;;16.30;57.00;;;;;;5041242;28;20878;-70
2022/04/20 13:42:59;;;;;;;2.90;2.70;;;16.40;56.50;;;;;;5039541;28;20811;-70
2022/04/20 13:45:25;;;;;;;2.80;2.60;;;16.40;56.30;;;;;;5041609;28;20453;-73
2022/04/20 13:47:51;;;;;;;3.80;3.50;;;16.60;56.80;;;;;;5025293;28;20461;-68
2022/04/20 13:50:17;;;;;;;3.90;3.70;;;16.80;56.70;;;;;;5039011;28;20212;-68
2022/04/20 13:52:42;;;;;;;3.60;3.23;;;16.90;56.80;;;;;;5047007;28;20226;-69
2022/04/20 13:55:09;;;;;;;3.73;3.00;;;16.90;57.00;;;;;;5039124;28;20478;-69
2022/04/20 13:57:35;;;;;;;3.37;2.80;;;16.90;56.90;;;;;;5039803;28;20693;-68
2022/04/20 14:00:03;;;;;;;5.47;2.53;;;17.00;57.40;;;;;;5037399;28;20482;-71